Terminal Aerodrome Forecast
Issued by NWS

Home | Current Version | Previous Version | Text Only | Print | Product List | Glossary On
Versions: 1 2 3 4 5 6 7 8 9 10 11 12 13 14 15 16 17 18 19
000
FTUS41 KBTV 302300
TAFRUT
TAF
KRUT 302334Z 3100/3124 20004KT P6SM SKC
     FM311000 14005KT P6SM VCSH BKN070
     FM311500 20007KT 6SM -SHRA BKN045 OVC070
      AMD LTD TO CLD VIS AND WIND=

USA.gov is the U.S. government's official web portal to all federal, state and local government web resources and services.